AGROMETEOROLOŠKI PORTAL

vinorodna pokrajina

Temelj dobrega kmetovanja

Pregled podatkov za lokacijo Gabernik-Rogaška, meteorološka postaja 37800

Pregled senzorjev na lokaciji

ID Ime Zadnja
vrednost
Datum in čas
meritve
(lokalni čas)
Tip
senzorja
1828 Omočenost lista (1,5 m) (U) 9 U 25.9.2022 22:30 A730WET
4946 Padavine (mm) 0 mm 25.9.2022 22:30 Generic 0.2 mm
1827 Relativna zračna vlaga (2 m) (%RH) 95 %RH 25.9.2022 22:30 50YA
1826 Temperatura (2 m) (°C) 12,1 °C 25.9.2022 22:30 50YA

Pregled podatkov zadnjih 24 ur

Zap.
št.
Datum in čas
(lokalni čas)
Gabernik-Rogaška
Omočenost
lista
(1,5
m)
Padavine Relativna
zračna
vlaga
(2
m)
Temperatura
(2
m)
1 25.9.2022 22:30 9 0 95,4 12,1
2 25.9.2022 22:00 9 0 95,4 12,7
3 25.9.2022 21:30 9 0 95,4 12,4
4 25.9.2022 21:00 9 0 95,3 12,1
5 25.9.2022 20:30 8 0 95,1 12,3
6 25.9.2022 20:00 7 0 95,1 12,4
7 25.9.2022 19:30 7 1,6 94,8 12,2
8 25.9.2022 19:00 8 4,2 94,5 12,3
9 25.9.2022 18:30 9 0,4 94,1 12,4
10 25.9.2022 18:00 10 0,6 93,6 12,7
11 25.9.2022 17:30 10 0,2 93,4 13,1
12 25.9.2022 17:00 10 0 93,1 13
13 25.9.2022 16:30 10 0 92,9 13
14 25.9.2022 16:00 10 0 93,4 13
15 25.9.2022 15:30 10 0,2 92,2 12,7
16 25.9.2022 15:00 10 0 90,6 13,2
17 25.9.2022 14:30 6 0 90,7 13,6
18 25.9.2022 14:00 9 0 91,3 13,5
19 25.9.2022 13:30 10 0,2 90,7 13,2
20 25.9.2022 13:00 10 0 91,6 13,1
21 25.9.2022 12:30 5 0 91,6 12,8
22 25.9.2022 12:00 3 0 90,3 12,8
23 25.9.2022 11:30 3 0 93,1 12,9
24 25.9.2022 11:00 8 0 94,6 12,5
25 25.9.2022 10:30 9 0 94,6 11,8
26 25.9.2022 10:00 8 0 94,3 11,4
27 25.9.2022 09:30 8 1,2 94,2 11,5
28 25.9.2022 09:00 9 1,6 93,9 11,5
29 25.9.2022 08:30 10 0,2 93,6 11,4
30 25.9.2022 08:00 10 0,4 92,7 11,3
31 25.9.2022 07:30 10 0,2 90,7 11,3
32 25.9.2022 07:00 8 0 89,1 11,4
33 25.9.2022 06:30 10 0,2 88,9 11,5
34 25.9.2022 06:00 10 0 89,6 11,5
35 25.9.2022 05:30 10 0,2 87,4 11,9
36 25.9.2022 05:00 10 0,2 87,1 12
37 25.9.2022 04:30 9 0 83,2 12,6
38 25.9.2022 04:00 3 0 78,6 13,1
39 25.9.2022 03:30 0 0 76,9 13,2
40 25.9.2022 03:00 0 0 75,3 13,5
41 25.9.2022 02:30 0 0 75 13,6
42 25.9.2022 02:00 0 0 74,3 13,8
43 25.9.2022 01:30 0 0 76,5 13,7
44 25.9.2022 01:00 0 0 79,2 13,4
45 25.9.2022 00:30 0 0 77,9 13,6
46 25.9.2022 00:00 0 0 76,8 13,8